sensor_id;sensor_type;location;lat;lon;timestamp;pressure;altitude;pressure_sealevel;temperature;humidity
81547;BME280;71078;48.358;10.960;2023-09-30T00:01:58;96815.56;;;22.50;40.16
81547;BME280;71078;48.358;10.960;2023-09-30T00:04:19;96817.66;;;22.22;40.77
81547;BME280;71078;48.358;10.960;2023-09-30T00:06:40;96835.44;;;22.35;41.07
81547;BME280;71078;48.358;10.960;2023-09-30T00:09:01;96842.00;;;22.66;40.30
81547;BME280;71078;48.358;10.960;2023-09-30T00:11:22;96832.88;;;23.12;38.98
81547;BME280;71078;48.358;10.960;2023-09-30T00:13:43;96827.00;;;23.15;38.99
81547;BME280;71078;48.358;10.960;2023-09-30T00:16:04;96806.31;;;23.19;38.64
81547;BME280;71078;48.358;10.960;2023-09-30T00:18:24;96818.00;;;23.28;38.44
81547;BME280;71078;48.358;10.960;2023-09-30T00:20:45;96820.34;;;23.19;39.04
81547;BME280;71078;48.358;10.960;2023-09-30T00:23:06;96827.00;;;23.15;39.08
81547;BME280;71078;48.358;10.960;2023-09-30T00:25:26;96826.16;;;23.26;39.20
81547;BME280;71078;48.358;10.960;2023-09-30T00:27:48;96820.38;;;23.13;39.06
81547;BME280;71078;48.358;10.960;2023-09-30T00:30:09;96847.06;;;23.25;38.68
81547;BME280;71078;48.358;10.960;2023-09-30T00:32:30;96839.53;;;23.03;38.71
81547;BME280;71078;48.358;10.960;2023-09-30T00:34:51;96840.63;;;22.95;39.50
81547;BME280;71078;48.358;10.960;2023-09-30T00:37:12;96843.22;;;22.81;39.25
81547;BME280;71078;48.358;10.960;2023-09-30T00:39:34;96851.16;;;22.72;39.70
81547;BME280;71078;48.358;10.960;2023-09-30T00:41:55;96861.13;;;22.50;40.26
81547;BME280;71078;48.358;10.960;2023-09-30T00:44:16;96864.94;;;22.53;40.50
81547;BME280;71078;48.358;10.960;2023-09-30T00:46:38;96868.22;;;22.74;40.18
81547;BME280;71078;48.358;10.960;2023-09-30T00:49:00;96863.69;;;22.32;40.67
81547;BME280;71078;48.358;10.960;2023-09-30T00:51:22;96867.72;;;22.59;40.54
81547;BME280;71078;48.358;10.960;2023-09-30T00:53:43;96843.53;;;22.61;40.18
81547;BME280;71078;48.358;10.960;2023-09-30T00:56:04;96850.66;;;22.62;40.07
81547;BME280;71078;48.358;10.960;2023-09-30T00:58:26;96851.19;;;22.49;40.26
81547;BME280;71078;48.358;10.960;2023-09-30T01:00:49;96845.03;;;22.62;40.52
81547;BME280;71078;48.358;10.960;2023-09-30T01:03:10;96847.13;;;22.45;40.35
81547;BME280;71078;48.358;10.960;2023-09-30T01:05:31;96852.72;;;22.45;40.30
81547;BME280;71078;48.358;10.960;2023-09-30T01:07:52;96850.69;;;22.40;40.48
81547;BME280;71078;48.358;10.960;2023-09-30T01:10:13;96838.72;;;22.45;40.86
81547;BME280;71078;48.358;10.960;2023-09-30T01:12:34;96845.34;;;22.42;40.33
81547;BME280;71078;48.358;10.960;2023-09-30T01:14:58;96835.41;;;22.52;40.36
81547;BME280;71078;48.358;10.960;2023-09-30T01:17:20;96830.06;;;22.48;40.13
81547;BME280;71078;48.358;10.960;2023-09-30T01:19:42;96835.91;;;22.50;40.34
81547;BME280;71078;48.358;10.960;2023-09-30T01:22:05;96839.75;;;22.47;40.62
81547;BME280;71078;48.358;10.960;2023-09-30T01:24:26;96845.84;;;22.46;40.48
81547;BME280;71078;48.358;10.960;2023-09-30T01:26:47;96835.69;;;22.43;40.72
81547;BME280;71078;48.358;10.960;2023-09-30T01:29:09;96841.56;;;22.23;41.24
81547;BME280;71078;48.358;10.960;2023-09-30T01:31:32;96844.38;;;21.95;41.63
81547;BME280;71078;48.358;10.960;2023-09-30T01:33:53;96842.09;;;22.21;40.80
81547;BME280;71078;48.358;10.960;2023-09-30T01:36:15;96853.28;;;21.93;41.95
81547;BME280;71078;48.358;10.960;2023-09-30T01:38:38;96848.72;;;22.12;41.45
81547;BME280;71078;48.358;10.960;2023-09-30T01:40:59;96858.91;;;21.99;41.19
81547;BME280;71078;48.358;10.960;2023-09-30T01:43:21;96839.53;;;21.73;41.98
81547;BME280;71078;48.358;10.960;2023-09-30T01:45:42;96843.63;;;21.83;41.71
81547;BME280;71078;48.358;10.960;2023-09-30T01:48:03;96824.03;;;21.83;41.63
81547;BME280;71078;48.358;10.960;2023-09-30T01:50:24;96831.81;;;21.23;42.74
81547;BME280;71078;48.358;10.960;2023-09-30T01:52:45;96835.97;;;21.72;42.00
81547;BME280;71078;48.358;10.960;2023-09-30T01:55:06;96832.41;;;21.94;41.18
81547;BME280;71078;48.358;10.960;2023-09-30T01:57:27;96837.25;;;22.10;41.03
81547;BME280;71078;48.358;10.960;2023-09-30T01:59:48;96844.66;;;22.08;40.86
81547;BME280;71078;48.358;10.960;2023-09-30T02:02:08;96828.63;;;22.03;41.11
81547;BME280;71078;48.358;10.960;2023-09-30T02:04:29;96826.59;;;22.09;41.44
81547;BME280;71078;48.358;10.960;2023-09-30T02:06:51;96841.59;;;22.17;40.89
81547;BME280;71078;48.358;10.960;2023-09-30T02:09:11;96847.69;;;22.21;40.89
81547;BME280;71078;48.358;10.960;2023-09-30T02:11:33;96844.38;;;22.17;41.23
81547;BME280;71078;48.358;10.960;2023-09-30T02:13:54;96838.03;;;22.16;40.54
81547;BME280;71078;48.358;10.960;2023-09-30T02:16:15;96858.59;;;21.63;42.36
81547;BME280;71078;48.358;10.960;2023-09-30T02:18:36;96854.81;;;21.89;41.73
81547;BME280;71078;48.358;10.960;2023-09-30T02:20:56;96856.56;;;21.64;42.21
81547;BME280;71078;48.358;10.960;2023-09-30T02:23:17;96848.94;;;21.75;41.61
81547;BME280;71078;48.358;10.960;2023-09-30T02:25:38;96841.84;;;22.02;41.77
81547;BME280;71078;48.358;10.960;2023-09-30T02:27:59;96841.06;;;21.91;41.62
81547;BME280;71078;48.358;10.960;2023-09-30T02:30:20;96861.91;;;21.67;42.12
81547;BME280;71078;48.358;10.960;2023-09-30T02:32:42;96855.56;;;21.72;42.25
81547;BME280;71078;48.358;10.960;2023-09-30T02:35:02;96848.44;;;21.60;42.04
81547;BME280;71078;48.358;10.960;2023-09-30T02:37:25;96845.66;;;21.88;41.68
81547;BME280;71078;48.358;10.960;2023-09-30T02:39:46;96839.53;;;21.84;42.17
81547;BME280;71078;48.358;10.960;2023-09-30T02:42:06;96840.81;;;21.83;41.76
81547;BME280;71078;48.358;10.960;2023-09-30T02:44:26;96843.59;;;21.72;41.66
81547;BME280;71078;48.358;10.960;2023-09-30T02:46:47;96842.28;;;21.34;42.85
81547;BME280;71078;48.358;10.960;2023-09-30T02:49:08;96844.84;;;21.37;42.57
81547;BME280;71078;48.358;10.960;2023-09-30T02:51:28;96844.63;;;21.63;42.33
81547;BME280;71078;48.358;10.960;2023-09-30T02:53:49;96836.91;;;21.25;42.55
81547;BME280;71078;48.358;10.960;2023-09-30T02:56:10;96834.97;;;21.86;42.09
81547;BME280;71078;48.358;10.960;2023-09-30T02:58:30;96835.97;;;21.95;41.83
81547;BME280;71078;48.358;10.960;2023-09-30T03:00:51;96843.63;;;22.05;41.24
81547;BME280;71078;48.358;10.960;2023-09-30T03:03:12;96842.88;;;22.05;41.42
81547;BME280;71078;48.358;10.960;2023-09-30T03:05:33;96853.28;;;21.82;41.40
81547;BME280;71078;48.358;10.960;2023-09-30T03:07:54;96844.13;;;21.76;42.19
81547;BME280;71078;48.358;10.960;2023-09-30T03:10:16;96837.50;;;21.84;42.11
81547;BME280;71078;48.358;10.960;2023-09-30T03:12:41;96842.63;;;21.97;41.79
81547;BME280;71078;48.358;10.960;2023-09-30T03:15:02;96838.78;;;21.95;41.66
81547;BME280;71078;48.358;10.960;2023-09-30T03:17:24;96848.19;;;21.64;42.73
81547;BME280;71078;48.358;10.960;2023-09-30T03:19:45;96842.34;;;21.73;42.00
81547;BME280;71078;48.358;10.960;2023-09-30T03:22:06;96844.88;;;21.71;41.97
81547;BME280;71078;48.358;10.960;2023-09-30T03:24:32;96841.56;;;21.50;42.16
81547;BME280;71078;48.358;10.960;2023-09-30T03:26:52;96855.56;;;21.61;42.54
81547;BME280;71078;48.358;10.960;2023-09-30T03:29:13;96857.81;;;21.46;42.61
81547;BME280;71078;48.358;10.960;2023-09-30T03:31:35;96868.00;;;21.60;42.38
81547;BME280;71078;48.358;10.960;2023-09-30T03:33:55;96868.13;;;21.17;43.48
81547;BME280;71078;48.358;10.960;2023-09-30T03:36:16;96865.50;;;20.92;43.99
81547;BME280;71078;48.358;10.960;2023-09-30T03:38:39;96865.09;;;21.21;42.99
81547;BME280;71078;48.358;10.960;2023-09-30T03:40:59;96857.63;;;20.90;43.42
81547;BME280;71078;48.358;10.960;2023-09-30T03:43:21;96853.66;;;21.13;43.25
81547;BME280;71078;48.358;10.960;2023-09-30T03:45:43;96858.06;;;21.42;42.81
81547;BME280;71078;48.358;10.960;2023-09-30T03:48:03;96854.03;;;21.54;42.74
81547;BME280;71078;48.358;10.960;2023-09-30T03:50:24;96852.25;;;21.68;42.27
81547;BME280;71078;48.358;10.960;2023-09-30T03:52:45;96859.63;;;21.71;42.25
81547;BME280;71078;48.358;10.960;2023-09-30T03:55:08;96866.47;;;21.53;42.59
81547;BME280;71078;48.358;10.960;2023-09-30T03:57:33;96865.66;;;21.31;43.07
81547;BME280;71078;48.358;10.960;2023-09-30T03:59:54;96858.06;;;21.42;42.18
81547;BME280;71078;48.358;10.960;2023-09-30T04:02:14;96883.50;;;21.61;42.13
81547;BME280;71078;48.358;10.960;2023-09-30T04:04:35;96862.66;;;21.51;42.35
81547;BME280;71078;48.358;10.960;2023-09-30T04:06:57;96862.16;;;21.52;42.36
81547;BME280;71078;48.358;10.960;2023-09-30T04:09:18;96861.13;;;21.61;42.49
81547;BME280;71078;48.358;10.960;2023-09-30T04:11:39;96857.84;;;21.74;42.15
81547;BME280;71078;48.358;10.960;2023-09-30T04:14:00;96856.44;;;21.13;42.79
81547;BME280;71078;48.358;10.960;2023-09-30T04:16:20;96862.88;;;21.31;42.81
81547;BME280;71078;48.358;10.960;2023-09-30T04:18:41;96864.56;;;21.11;43.16
81547;BME280;71078;48.358;10.960;2023-09-30T04:21:02;96849.78;;;20.94;43.62
81547;BME280;71078;48.358;10.960;2023-09-30T04:23:23;96853.59;;;21.02;43.71
81547;BME280;71078;48.358;10.960;2023-09-30T04:25:43;96862.72;;;20.97;43.60
81547;BME280;71078;48.358;10.960;2023-09-30T04:28:05;96860.78;;;21.20;43.14
81547;BME280;71078;48.358;10.960;2023-09-30T04:30:25;96878.63;;;21.28;42.90
81547;BME280;71078;48.358;10.960;2023-09-30T04:32:46;96868.16;;;21.23;42.95
81547;BME280;71078;48.358;10.960;2023-09-30T04:35:07;96869.50;;;21.39;42.62
81547;BME280;71078;48.358;10.960;2023-09-30T04:37:28;96879.16;;;20.36;44.22
81547;BME280;71078;48.358;10.960;2023-09-30T04:39:49;96884.94;;;20.69;44.08
81547;BME280;71078;48.358;10.960;2023-09-30T04:42:09;96887.09;;;20.91;43.65
81547;BME280;71078;48.358;10.960;2023-09-30T04:44:32;96888.41;;;21.07;43.82
81547;BME280;71078;48.358;10.960;2023-09-30T04:46:52;96887.81;;;20.80;44.05
81547;BME280;71078;48.358;10.960;2023-09-30T04:49:14;96880.13;;;20.70;44.13
81547;BME280;71078;48.358;10.960;2023-09-30T04:51:35;96882.59;;;21.16;43.22
81547;BME280;71078;48.358;10.960;2023-09-30T04:53:56;96880.97;;;20.87;43.53
81547;BME280;71078;48.358;10.960;2023-09-30T04:56:18;96884.78;;;20.84;43.48
81547;BME280;71078;48.358;10.960;2023-09-30T04:58:38;96879.38;;;21.34;42.95
81547;BME280;71078;48.358;10.960;2023-09-30T05:00:59;96876.59;;;21.40;42.51
81547;BME280;71078;48.358;10.960;2023-09-30T05:03:20;96885.16;;;21.14;42.96
81547;BME280;71078;48.358;10.960;2023-09-30T05:05:41;96889.97;;;21.13;42.64
81547;BME280;71078;48.358;10.960;2023-09-30T05:08:02;96887.16;;;21.08;42.55
81547;BME280;71078;48.358;10.960;2023-09-30T05:10:25;96887.31;;;20.82;43.38
81547;BME280;71078;48.358;10.960;2023-09-30T05:12:46;96900.84;;;21.00;43.42
81547;BME280;71078;48.358;10.960;2023-09-30T05:15:08;96908.28;;;21.20;42.95
81547;BME280;71078;48.358;10.960;2023-09-30T05:17:29;96908.75;;;21.07;43.35
81547;BME280;71078;48.358;10.960;2023-09-30T05:19:50;96909.84;;;21.27;42.82
81547;BME280;71078;48.358;10.960;2023-09-30T05:22:10;96927.41;;;21.33;42.85
81547;BME280;71078;48.358;10.960;2023-09-30T05:24:31;96925.31;;;21.22;42.34
81547;BME280;71078;48.358;10.960;2023-09-30T05:26:51;96915.88;;;21.14;42.82
81547;BME280;71078;48.358;10.960;2023-09-30T05:29:12;96918.69;;;21.19;42.75
81547;BME280;71078;48.358;10.960;2023-09-30T05:31:32;96931.44;;;21.26;42.77
81547;BME280;71078;48.358;10.960;2023-09-30T05:33:53;96944.72;;;21.37;42.71
81547;BME280;71078;48.358;10.960;2023-09-30T05:36:16;96936.31;;;21.31;42.91
81547;BME280;71078;48.358;10.960;2023-09-30T05:38:36;96925.81;;;21.20;42.75
81547;BME280;71078;48.358;10.960;2023-09-30T05:40:57;96930.63;;;21.14;42.91
81547;BME280;71078;48.358;10.960;2023-09-30T05:43:19;96923.97;;;21.06;42.54
81547;BME280;71078;48.358;10.960;2023-09-30T05:45:39;96929.75;;;20.92;43.36
81547;BME280;71078;48.358;10.960;2023-09-30T05:48:10;96941.41;;;20.90;44.10
81547;BME280;71078;48.358;10.960;2023-09-30T05:50:33;96938.34;;;20.82;44.05
81547;BME280;71078;48.358;10.960;2023-09-30T05:52:55;96945.19;;;20.13;45.12
81547;BME280;71078;48.358;10.960;2023-09-30T05:55:17;96944.03;;;19.99;45.80
81547;BME280;71078;48.358;10.960;2023-09-30T05:57:41;96936.28;;;19.37;47.68
81547;BME280;71078;48.358;10.960;2023-09-30T06:00:04;96941.50;;;19.75;46.99
81547;BME280;71078;48.358;10.960;2023-09-30T06:02:34;96937.78;;;19.58;47.28
81547;BME280;71078;48.358;10.960;2023-09-30T06:04:58;96937.13;;;20.20;45.88
81547;BME280;71078;48.358;10.960;2023-09-30T06:07:19;96940.13;;;19.85;46.51
81547;BME280;71078;48.358;10.960;2023-09-30T06:09:40;96946.50;;;19.91;46.37
81547;BME280;71078;48.358;10.960;2023-09-30T06:12:01;96947.25;;;19.66;46.51
81547;BME280;71078;48.358;10.960;2023-09-30T06:14:24;96948.50;;;20.48;45.59
81547;BME280;71078;48.358;10.960;2023-09-30T06:16:48;96942.06;;;20.05;45.79
81547;BME280;71078;48.358;10.960;2023-09-30T06:19:09;96958.94;;;20.53;45.07
81547;BME280;71078;48.358;10.960;2023-09-30T06:21:30;96960.06;;;20.36;45.08
81547;BME280;71078;48.358;10.960;2023-09-30T06:23:51;96961.28;;;20.29;45.33
81547;BME280;71078;48.358;10.960;2023-09-30T06:26:15;96954.38;;;19.93;46.45
81547;BME280;71078;48.358;10.960;2023-09-30T06:28:38;96955.03;;;20.40;45.91
81547;BME280;71078;48.358;10.960;2023-09-30T06:31:01;96949.78;;;20.84;44.93
81547;BME280;71078;48.358;10.960;2023-09-30T06:33:22;96950.69;;;20.70;44.69
81547;BME280;71078;48.358;10.960;2023-09-30T06:35:43;96950.28;;;20.83;44.34
81547;BME280;71078;48.358;10.960;2023-09-30T06:38:10;96956.03;;;20.37;45.54
81547;BME280;71078;48.358;10.960;2023-09-30T06:40:31;96958.31;;;20.07;46.27
81547;BME280;71078;48.358;10.960;2023-09-30T06:42:52;96976.19;;;19.48;47.32
81547;BME280;71078;48.358;10.960;2023-09-30T06:45:13;96964.94;;;20.09;46.58
81547;BME280;71078;48.358;10.960;2023-09-30T06:47:34;96964.97;;;20.15;46.40
81547;BME280;71078;48.358;10.960;2023-09-30T06:49:57;96973.56;;;20.43;45.67
81547;BME280;71078;48.358;10.960;2023-09-30T06:52:17;96977.72;;;20.90;45.40
81547;BME280;71078;48.358;10.960;2023-09-30T06:54:37;96981.69;;;21.15;44.40
81547;BME280;71078;48.358;10.960;2023-09-30T06:56:58;96977.19;;;20.49;45.14
81547;BME280;71078;48.358;10.960;2023-09-30T06:59:19;96981.22;;;20.48;45.36
81547;BME280;71078;48.358;10.960;2023-09-30T07:01:39;96977.81;;;20.33;45.78
81547;BME280;71078;48.358;10.960;2023-09-30T07:04:00;96984.56;;;20.20;45.57
81547;BME280;71078;48.358;10.960;2023-09-30T07:06:25;96984.81;;;19.71;47.46
81547;BME280;71078;48.358;10.960;2023-09-30T07:08:46;96991.28;;;20.34;46.06
81547;BME280;71078;48.358;10.960;2023-09-30T07:11:06;97001.84;;;20.24;46.27
81547;BME280;71078;48.358;10.960;2023-09-30T07:13:28;97001.31;;;20.52;45.50
81547;BME280;71078;48.358;10.960;2023-09-30T07:15:48;97005.53;;;20.42;45.58
81547;BME280;71078;48.358;10.960;2023-09-30T07:18:10;96993.38;;;19.87;46.66
81547;BME280;71078;48.358;10.960;2023-09-30T07:20:32;97003.50;;;19.85;47.21
81547;BME280;71078;48.358;10.960;2023-09-30T07:22:53;97016.47;;;20.45;46.12
81547;BME280;71078;48.358;10.960;2023-09-30T07:25:31;97014.09;;;20.33;46.73
81547;BME280;71078;48.358;10.960;2023-09-30T07:27:55;97014.75;;;20.22;46.30
81547;BME280;71078;48.358;10.960;2023-09-30T07:30:15;97021.88;;;19.97;46.21
81547;BME280;71078;48.358;10.960;2023-09-30T07:32:36;97024.66;;;19.77;46.78
81547;BME280;71078;48.358;10.960;2023-09-30T07:34:57;97023.34;;;19.72;46.75
81547;BME280;71078;48.358;10.960;2023-09-30T07:37:18;97031.59;;;20.33;45.62
81547;BME280;71078;48.358;10.960;2023-09-30T07:39:39;97034.03;;;19.53;46.78
81547;BME280;71078;48.358;10.960;2023-09-30T07:42:00;97026.44;;;19.54;46.86
81547;BME280;71078;48.358;10.960;2023-09-30T07:44:21;97025.59;;;19.88;45.56
81547;BME280;71078;48.358;10.960;2023-09-30T07:46:42;97018.44;;;20.08;46.26
81547;BME280;71078;48.358;10.960;2023-09-30T07:49:03;97014.72;;;19.70;47.07
81547;BME280;71078;48.358;10.960;2023-09-30T07:51:23;97021.75;;;19.86;47.00
81547;BME280;71078;48.358;10.960;2023-09-30T07:53:44;97033.47;;;19.49;47.33
81547;BME280;71078;48.358;10.960;2023-09-30T07:56:04;97035.22;;;19.87;47.02
81547;BME280;71078;48.358;10.960;2023-09-30T07:58:25;97041.53;;;19.68;46.66
81547;BME280;71078;48.358;10.960;2023-09-30T08:00:46;97028.38;;;20.40;45.74
81547;BME280;71078;48.358;10.960;2023-09-30T08:03:08;97022.38;;;20.53;45.06
81547;BME280;71078;48.358;10.960;2023-09-30T08:05:29;97007.97;;;20.29;45.02
81547;BME280;71078;48.358;10.960;2023-09-30T08:07:49;97012.03;;;20.90;44.88
81547;BME280;71078;48.358;10.960;2023-09-30T08:10:09;97016.72;;;20.16;45.85
81547;BME280;71078;48.358;10.960;2023-09-30T08:12:34;97021.72;;;20.06;45.94
81547;BME280;71078;48.358;10.960;2023-09-30T08:14:55;97023.28;;;19.87;45.86
81547;BME280;71078;48.358;10.960;2023-09-30T08:17:16;97034.28;;;20.79;44.81
81547;BME280;71078;48.358;10.960;2023-09-30T08:19:37;97037.22;;;21.02;44.51
81547;BME280;71078;48.358;10.960;2023-09-30T08:21:58;97043.81;;;20.99;44.28
81547;BME280;71078;48.358;10.960;2023-09-30T08:24:19;97037.03;;;20.16;44.69
81547;BME280;71078;48.358;10.960;2023-09-30T08:26:40;97053.22;;;20.38;45.03
81547;BME280;71078;48.358;10.960;2023-09-30T08:29:01;97048.13;;;20.63;44.99
81547;BME280;71078;48.358;10.960;2023-09-30T08:31:23;97043.81;;;20.10;45.52
81547;BME280;71078;48.358;10.960;2023-09-30T08:33:45;97043.31;;;21.37;43.69
81547;BME280;71078;48.358;10.960;2023-09-30T08:36:07;97048.94;;;21.06;43.01
81547;BME280;71078;48.358;10.960;2023-09-30T08:38:28;97049.88;;;21.29;42.85
81547;BME280;71078;48.358;10.960;2023-09-30T08:40:52;97051.66;;;21.32;42.95
81547;BME280;71078;48.358;10.960;2023-09-30T08:43:14;97047.69;;;21.07;43.35
81547;BME280;71078;48.358;10.960;2023-09-30T08:45:36;97047.72;;;21.12;43.26
81547;BME280;71078;48.358;10.960;2023-09-30T08:48:00;97054.69;;;21.28;43.10
81547;BME280;71078;48.358;10.960;2023-09-30T08:50:26;97041.63;;;21.14;43.26
81547;BME280;71078;48.358;10.960;2023-09-30T08:52:47;97059.88;;;19.54;45.74
81547;BME280;71078;48.358;10.960;2023-09-30T08:55:09;97062.13;;;21.42;43.64
81547;BME280;71078;48.358;10.960;2023-09-30T08:57:31;97057.50;;;21.93;42.31
81547;BME280;71078;48.358;10.960;2023-09-30T08:59:53;97062.16;;;22.07;42.32
81547;BME280;71078;48.358;10.960;2023-09-30T09:02:13;97053.88;;;21.70;42.39
81547;BME280;71078;48.358;10.960;2023-09-30T09:04:35;97042.31;;;21.40;42.11
81547;BME280;71078;48.358;10.960;2023-09-30T09:06:57;97049.31;;;21.25;42.56
81547;BME280;71078;48.358;10.960;2023-09-30T09:09:18;97064.06;;;21.79;42.36
81547;BME280;71078;48.358;10.960;2023-09-30T09:11:40;97054.19;;;21.89;41.26
81547;BME280;71078;48.358;10.960;2023-09-30T09:14:00;97052.38;;;21.75;41.08
81547;BME280;71078;48.358;10.960;2023-09-30T09:16:22;97052.09;;;21.73;41.26
81547;BME280;71078;48.358;10.960;2023-09-30T09:18:43;97043.13;;;22.39;40.72
81547;BME280;71078;48.358;10.960;2023-09-30T09:21:22;97042.84;;;21.44;41.75
81547;BME280;71078;48.358;10.960;2023-09-30T09:23:45;97047.50;;;21.64;41.31
81547;BME280;71078;48.358;10.960;2023-09-30T09:26:06;97040.78;;;22.10;41.16
81547;BME280;71078;48.358;10.960;2023-09-30T09:28:34;97039.06;;;22.40;40.21
81547;BME280;71078;48.358;10.960;2023-09-30T09:30:55;97041.31;;;22.25;40.60
81547;BME280;71078;48.358;10.960;2023-09-30T09:33:16;97039.31;;;21.55;41.93
81547;BME280;71078;48.358;10.960;2023-09-30T09:35:37;97030.84;;;21.38;41.21
81547;BME280;71078;48.358;10.960;2023-09-30T09:38:01;97038.22;;;22.01;41.08
81547;BME280;71078;48.358;10.960;2023-09-30T09:40:29;97032.44;;;22.43;39.66
81547;BME280;71078;48.358;10.960;2023-09-30T09:42:51;97040.31;;;22.28;39.40
81547;BME280;71078;48.358;10.960;2023-09-30T09:45:14;97039.56;;;22.28;39.65
81547;BME280;71078;48.358;10.960;2023-09-30T09:47:35;97041.31;;;21.43;40.89
81547;BME280;71078;48.358;10.960;2023-09-30T09:49:57;97041.47;;;21.82;40.54
81547;BME280;71078;48.358;10.960;2023-09-30T09:52:18;97034.00;;;21.57;40.02
81547;BME280;71078;48.358;10.960;2023-09-30T09:54:40;97031.00;;;21.72;40.85
81547;BME280;71078;48.358;10.960;2023-09-30T09:57:03;97021.72;;;22.14;40.38
81547;BME280;71078;48.358;10.960;2023-09-30T09:59:25;97023.47;;;22.06;40.55
81547;BME280;71078;48.358;10.960;2023-09-30T10:01:46;97021.50;;;21.52;40.00
81547;BME280;71078;48.358;10.960;2023-09-30T10:04:10;97027.06;;;22.06;40.11
81547;BME280;71078;48.358;10.960;2023-09-30T10:06:35;97031.44;;;22.52;39.86
81547;BME280;71078;48.358;10.960;2023-09-30T10:09:01;97023.03;;;22.63;39.26
81547;BME280;71078;48.358;10.960;2023-09-30T10:11:22;97017.09;;;23.06;38.28
81547;BME280;71078;48.358;10.960;2023-09-30T10:13:57;97010.69;;;23.28;37.89
81547;BME280;71078;48.358;10.960;2023-09-30T10:19:17;97011.72;;;23.19;37.72
81547;BME280;71078;48.358;10.960;2023-09-30T10:21:39;97007.00;;;23.61;36.40
81547;BME280;71078;48.358;10.960;2023-09-30T10:26:46;97009.97;;;23.85;35.84
81547;BME280;71078;48.358;10.960;2023-09-30T10:29:09;97012.94;;;24.04;35.34
81547;BME280;71078;48.358;10.960;2023-09-30T10:31:29;97019.03;;;23.50;36.38
81547;BME280;71078;48.358;10.960;2023-09-30T10:36:29;97014.03;;;23.09;38.77
81547;BME280;71078;48.358;10.960;2023-09-30T10:38:51;97010.69;;;23.33;37.94
81547;BME280;71078;48.358;10.960;2023-09-30T10:46:47;97000.84;;;24.86;35.02
81547;BME280;71078;48.358;10.960;2023-09-30T10:51:45;96998.84;;;22.71;36.96
81547;BME280;71078;48.358;10.960;2023-09-30T10:54:07;96990.09;;;23.14;37.94
81547;BME280;71078;48.358;10.960;2023-09-30T10:56:32;96983.94;;;23.32;36.94
81547;BME280;71078;48.358;10.960;2023-09-30T10:58:53;96996.94;;;23.88;37.16
81547;BME280;71078;48.358;10.960;2023-09-30T11:01:17;96996.25;;;23.70;37.08
81547;BME280;71078;48.358;10.960;2023-09-30T11:03:38;97006.47;;;22.21;39.64
81547;BME280;71078;48.358;10.960;2023-09-30T11:05:58;97004.19;;;22.41;39.61
81547;BME280;71078;48.358;10.960;2023-09-30T11:08:23;96995.19;;;21.87;40.40
81547;BME280;71078;48.358;10.960;2023-09-30T11:10:51;97013.38;;;22.70;38.40
81547;BME280;71078;48.358;10.960;2023-09-30T11:13:13;97018.16;;;22.13;40.78
81547;BME280;71078;48.358;10.960;2023-09-30T11:15:34;97009.59;;;21.63;39.44
81547;BME280;71078;48.358;10.960;2023-09-30T11:18:14;97009.91;;;21.22;40.66
81547;BME280;71078;48.358;10.960;2023-09-30T11:20:35;97012.84;;;22.32;39.81
81547;BME280;71078;48.358;10.960;2023-09-30T11:22:56;97014.13;;;22.76;39.82
81547;BME280;71078;48.358;10.960;2023-09-30T11:25:17;97009.28;;;22.71;38.63
81547;BME280;71078;48.358;10.960;2023-09-30T11:27:39;97008.78;;;22.67;38.21
81547;BME280;71078;48.358;10.960;2023-09-30T11:30:02;97008.50;;;22.14;38.86
81547;BME280;71078;48.358;10.960;2023-09-30T11:32:27;96992.81;;;24.35;36.10
81547;BME280;71078;48.358;10.960;2023-09-30T11:34:49;96995.22;;;24.20;36.17
81547;BME280;71078;48.358;10.960;2023-09-30T11:37:09;96988.56;;;24.23;36.33
81547;BME280;71078;48.358;10.960;2023-09-30T11:39:31;96987.94;;;24.71;34.69
81547;BME280;71078;48.358;10.960;2023-09-30T11:41:54;96980.41;;;23.78;35.41
81547;BME280;71078;48.358;10.960;2023-09-30T11:44:15;96973.59;;;24.09;35.42
81547;BME280;71078;48.358;10.960;2023-09-30T11:51:47;96963.69;;;23.56;35.02
81547;BME280;71078;48.358;10.960;2023-09-30T11:54:08;96960.41;;;24.64;33.99
81547;BME280;71078;48.358;10.960;2023-09-30T11:56:31;96956.41;;;24.54;34.00
81547;BME280;71078;48.358;10.960;2023-09-30T11:58:52;96954.22;;;23.65;35.67
81547;BME280;71078;48.358;10.960;2023-09-30T12:01:12;96954.28;;;23.95;34.72
81547;BME280;71078;48.358;10.960;2023-09-30T12:03:34;96945.06;;;24.35;34.70
81547;BME280;71078;48.358;10.960;2023-09-30T12:06:01;96940.63;;;24.46;34.49
81547;BME280;71078;48.358;10.960;2023-09-30T12:08:24;96948.94;;;24.62;33.49
81547;BME280;71078;48.358;10.960;2023-09-30T12:10:45;96947.53;;;24.45;34.15
81547;BME280;71078;48.358;10.960;2023-09-30T12:13:05;96936.03;;;23.19;35.71
81547;BME280;71078;48.358;10.960;2023-09-30T12:15:26;96941.66;;;23.19;36.01
81547;BME280;71078;48.358;10.960;2023-09-30T12:17:47;96947.03;;;23.06;36.88
81547;BME280;71078;48.358;10.960;2023-09-30T12:20:08;96944.34;;;23.47;35.76
81547;BME280;71078;48.358;10.960;2023-09-30T12:22:29;96945.47;;;23.74;35.01
81547;BME280;71078;48.358;10.960;2023-09-30T12:24:49;96933.34;;;24.31;34.67
81547;BME280;71078;48.358;10.960;2023-09-30T12:27:10;96940.31;;;24.55;34.42
81547;BME280;71078;48.358;10.960;2023-09-30T12:29:31;96915.41;;;24.10;34.23
81547;BME280;71078;48.358;10.960;2023-09-30T12:31:52;96921.38;;;24.85;32.46
81547;BME280;71078;48.358;10.960;2023-09-30T12:34:15;96934.19;;;25.29;32.21
81547;BME280;71078;48.358;10.960;2023-09-30T12:36:36;96927.09;;;25.23;31.50
81547;BME280;71078;48.358;10.960;2023-09-30T12:38:56;96929.47;;;25.56;31.52
81547;BME280;71078;48.358;10.960;2023-09-30T12:41:17;96937.03;;;25.86;31.42
81547;BME280;71078;48.358;10.960;2023-09-30T12:43:39;96940.75;;;25.56;31.48